sensor_id;sensor_type;location;lat;lon;timestamp;P1;durP1;ratioP1;P2;durP2;ratioP2
9328;SDS011;4703;48.748;19.142;2022-08-04T00:01:31;8.60;;;7.90;;
9328;SDS011;4703;48.748;19.142;2022-08-04T00:07:01;7.73;;;7.13;;
9328;SDS011;4703;48.748;19.142;2022-08-04T00:12:50;8.37;;;7.67;;
9328;SDS011;4703;48.748;19.142;2022-08-04T00:15:20;8.20;;;7.60;;
9328;SDS011;4703;48.748;19.142;2022-08-04T00:17:59;7.70;;;7.20;;
9328;SDS011;4703;48.748;19.142;2022-08-04T00:20:37;8.63;;;7.80;;
9328;SDS011;4703;48.748;19.142;2022-08-04T00:23:06;8.60;;;8.00;;
9328;SDS011;4703;48.748;19.142;2022-08-04T00:25:37;8.80;;;8.03;;
9328;SDS011;4703;48.748;19.142;2022-08-04T00:28:06;9.13;;;8.33;;
9328;SDS011;4703;48.748;19.142;2022-08-04T00:30:33;8.47;;;7.87;;
9328;SDS011;4703;48.748;19.142;2022-08-04T00:33:00;8.10;;;7.40;;
9328;SDS011;4703;48.748;19.142;2022-08-04T00:35:28;8.63;;;7.93;;
9328;SDS011;4703;48.748;19.142;2022-08-04T00:37:55;7.97;;;7.37;;
9328;SDS011;4703;48.748;19.142;2022-08-04T00:40:30;8.60;;;8.00;;
9328;SDS011;4703;48.748;19.142;2022-08-04T01:00:26;8.93;;;8.20;;
9328;SDS011;4703;48.748;19.142;2022-08-04T01:06:14;8.70;;;8.00;;
9328;SDS011;4703;48.748;19.142;2022-08-04T01:14:46;9.50;;;8.87;;
9328;SDS011;4703;48.748;19.142;2022-08-04T01:17:42;10.50;;;9.40;;
9328;SDS011;4703;48.748;19.142;2022-08-04T01:20:30;9.67;;;8.80;;
9328;SDS011;4703;48.748;19.142;2022-08-04T01:29:22;9.53;;;8.83;;
9328;SDS011;4703;48.748;19.142;2022-08-04T01:32:55;9.03;;;8.23;;
9328;SDS011;4703;48.748;19.142;2022-08-04T01:35:07;9.70;;;8.90;;
9328;SDS011;4703;48.748;19.142;2022-08-04T01:41:08;9.83;;;9.03;;
9328;SDS011;4703;48.748;19.142;2022-08-04T01:43:40;10.13;;;9.23;;
9328;SDS011;4703;48.748;19.142;2022-08-04T01:46:10;8.93;;;8.23;;
9328;SDS011;4703;48.748;19.142;2022-08-04T01:48:44;10.30;;;9.37;;
9328;SDS011;4703;48.748;19.142;2022-08-04T01:51:12;10.43;;;9.63;;
9328;SDS011;4703;48.748;19.142;2022-08-04T01:53:41;9.67;;;8.77;;
9328;SDS011;4703;48.748;19.142;2022-08-04T01:56:10;9.73;;;8.93;;
9328;SDS011;4703;48.748;19.142;2022-08-04T01:58:39;9.13;;;8.43;;
9328;SDS011;4703;48.748;19.142;2022-08-04T02:01:10;11.10;;;10.20;;
9328;SDS011;4703;48.748;19.142;2022-08-04T02:03:40;10.47;;;9.70;;
9328;SDS011;4703;48.748;19.142;2022-08-04T02:09:37;9.73;;;8.83;;
9328;SDS011;4703;48.748;19.142;2022-08-04T02:15:57;9.43;;;8.67;;
9328;SDS011;4703;48.748;19.142;2022-08-04T02:18:55;9.57;;;8.77;;
9328;SDS011;4703;48.748;19.142;2022-08-04T02:21:41;11.40;;;10.40;;
9328;SDS011;4703;48.748;19.142;2022-08-04T02:24:15;11.60;;;10.40;;
9328;SDS011;4703;48.748;19.142;2022-08-04T02:26:48;10.60;;;9.60;;
9328;SDS011;4703;48.748;19.142;2022-08-04T02:29:24;11.00;;;9.90;;
9328;SDS011;4703;48.748;19.142;2022-08-04T02:32:03;11.03;;;10.13;;
9328;SDS011;4703;48.748;19.142;2022-08-04T02:37:47;11.20;;;10.10;;
9328;SDS011;4703;48.748;19.142;2022-08-04T02:40:21;10.37;;;9.57;;
9328;SDS011;4703;48.748;19.142;2022-08-04T02:42:52;10.73;;;9.73;;
9328;SDS011;4703;48.748;19.142;2022-08-04T02:45:23;10.50;;;9.67;;
9328;SDS011;4703;48.748;19.142;2022-08-04T02:47:52;10.47;;;9.50;;
9328;SDS011;4703;48.748;19.142;2022-08-04T02:50:40;10.10;;;9.30;;
9328;SDS011;4703;48.748;19.142;2022-08-04T02:53:10;10.70;;;9.80;;
9328;SDS011;4703;48.748;19.142;2022-08-04T02:55:40;10.23;;;9.40;;
9328;SDS011;4703;48.748;19.142;2022-08-04T02:58:19;10.93;;;10.03;;
9328;SDS011;4703;48.748;19.142;2022-08-04T03:00:47;10.50;;;9.63;;
9328;SDS011;4703;48.748;19.142;2022-08-04T03:03:23;11.27;;;10.30;;
9328;SDS011;4703;48.748;19.142;2022-08-04T03:06:16;10.73;;;9.87;;
9328;SDS011;4703;48.748;19.142;2022-08-04T03:09:08;10.17;;;9.37;;
9328;SDS011;4703;48.748;19.142;2022-08-04T03:12:10;10.53;;;9.73;;
9328;SDS011;4703;48.748;19.142;2022-08-04T03:20:31;10.83;;;9.90;;
9328;SDS011;4703;48.748;19.142;2022-08-04T03:29:50;11.70;;;10.50;;
9328;SDS011;4703;48.748;19.142;2022-08-04T03:32:44;11.40;;;10.40;;
9328;SDS011;4703;48.748;19.142;2022-08-04T03:38:50;10.83;;;9.93;;
9328;SDS011;4703;48.748;19.142;2022-08-04T03:45:17;10.70;;;9.80;;
9328;SDS011;4703;48.748;19.142;2022-08-04T04:04:46;12.40;;;11.23;;
9328;SDS011;4703;48.748;19.142;2022-08-04T04:19:53;12.07;;;10.87;;
9328;SDS011;4703;48.748;19.142;2022-08-04T04:25:44;12.00;;;10.90;;
9328;SDS011;4703;48.748;19.142;2022-08-04T04:46:25;12.00;;;11.00;;
9328;SDS011;4703;48.748;19.142;2022-08-04T04:51:48;11.80;;;10.80;;
9328;SDS011;4703;48.748;19.142;2022-08-04T04:57:19;12.23;;;11.13;;
9328;SDS011;4703;48.748;19.142;2022-08-04T05:00:09;11.40;;;10.40;;
9328;SDS011;4703;48.748;19.142;2022-08-04T05:06:10;10.83;;;9.83;;
9328;SDS011;4703;48.748;19.142;2022-08-04T05:14:16;10.70;;;9.70;;
9328;SDS011;4703;48.748;19.142;2022-08-04T05:17:22;11.20;;;10.30;;
9328;SDS011;4703;48.748;19.142;2022-08-04T05:22:47;11.17;;;10.20;;
9328;SDS011;4703;48.748;19.142;2022-08-04T05:25:21;11.60;;;10.60;;
9328;SDS011;4703;48.748;19.142;2022-08-04T05:28:04;11.57;;;10.63;;
9328;SDS011;4703;48.748;19.142;2022-08-04T05:30:38;10.53;;;9.63;;
9328;SDS011;4703;48.748;19.142;2022-08-04T05:33:27;11.50;;;10.57;;
9328;SDS011;4703;48.748;19.142;2022-08-04T05:36:13;12.50;;;11.30;;
9328;SDS011;4703;48.748;19.142;2022-08-04T05:39:03;12.23;;;10.90;;
9328;SDS011;4703;48.748;19.142;2022-08-04T05:41:33;12.33;;;11.17;;
9328;SDS011;4703;48.748;19.142;2022-08-04T05:44:20;12.03;;;10.93;;
9328;SDS011;4703;48.748;19.142;2022-08-04T05:46:49;12.57;;;11.50;;
9328;SDS011;4703;48.748;19.142;2022-08-04T05:49:21;12.50;;;11.37;;
9328;SDS011;4703;48.748;19.142;2022-08-04T05:51:49;12.90;;;11.83;;
9328;SDS011;4703;48.748;19.142;2022-08-04T05:54:20;11.33;;;10.43;;
9328;SDS011;4703;48.748;19.142;2022-08-04T05:56:48;11.50;;;10.50;;
9328;SDS011;4703;48.748;19.142;2022-08-04T05:59:17;12.30;;;11.10;;
9328;SDS011;4703;48.748;19.142;2022-08-04T06:01:46;12.37;;;11.33;;
9328;SDS011;4703;48.748;19.142;2022-08-04T06:04:22;12.73;;;11.70;;
9328;SDS011;4703;48.748;19.142;2022-08-04T06:07:00;12.20;;;11.10;;
9328;SDS011;4703;48.748;19.142;2022-08-04T06:09:27;12.40;;;11.40;;
9328;SDS011;4703;48.748;19.142;2022-08-04T06:11:59;11.83;;;10.83;;
9328;SDS011;4703;48.748;19.142;2022-08-04T06:14:43;12.77;;;11.47;;
9328;SDS011;4703;48.748;19.142;2022-08-04T06:17:14;12.80;;;11.80;;
9328;SDS011;4703;48.748;19.142;2022-08-04T06:20:10;11.70;;;10.70;;
9328;SDS011;4703;48.748;19.142;2022-08-04T06:22:49;13.17;;;12.00;;
9328;SDS011;4703;48.748;19.142;2022-08-04T06:25:30;11.90;;;10.90;;
9328;SDS011;4703;48.748;19.142;2022-08-04T06:28:04;13.53;;;12.30;;
9328;SDS011;4703;48.748;19.142;2022-08-04T06:30:32;13.73;;;12.53;;
9328;SDS011;4703;48.748;19.142;2022-08-04T06:32:59;12.70;;;11.60;;
9328;SDS011;4703;48.748;19.142;2022-08-04T06:35:30;12.53;;;11.53;;
9328;SDS011;4703;48.748;19.142;2022-08-04T06:37:59;12.10;;;11.10;;
9328;SDS011;4703;48.748;19.142;2022-08-04T06:40:28;13.37;;;12.10;;
9328;SDS011;4703;48.748;19.142;2022-08-04T06:43:03;12.83;;;11.63;;
9328;SDS011;4703;48.748;19.142;2022-08-04T06:45:33;13.30;;;12.10;;
9328;SDS011;4703;48.748;19.142;2022-08-04T06:48:03;12.60;;;11.40;;
9328;SDS011;4703;48.748;19.142;2022-08-04T06:50:35;12.07;;;10.90;;
9328;SDS011;4703;48.748;19.142;2022-08-04T06:53:23;11.97;;;10.97;;
9328;SDS011;4703;48.748;19.142;2022-08-04T06:55:52;11.20;;;10.30;;
9328;SDS011;4703;48.748;19.142;2022-08-04T06:58:22;13.13;;;11.97;;
9328;SDS011;4703;48.748;19.142;2022-08-04T07:00:50;31.70;;;28.33;;
9328;SDS011;4703;48.748;19.142;2022-08-04T07:03:19;22.37;;;19.97;;
9328;SDS011;4703;48.748;19.142;2022-08-04T07:05:48;28.00;;;25.03;;
9328;SDS011;4703;48.748;19.142;2022-08-04T07:08:16;22.73;;;20.27;;
9328;SDS011;4703;48.748;19.142;2022-08-04T07:10:44;17.20;;;15.50;;
9328;SDS011;4703;48.748;19.142;2022-08-04T07:13:12;12.30;;;11.23;;
9328;SDS011;4703;48.748;19.142;2022-08-04T07:15:43;11.60;;;10.60;;
9328;SDS011;4703;48.748;19.142;2022-08-04T07:18:12;12.20;;;11.30;;
9328;SDS011;4703;48.748;19.142;2022-08-04T07:20:43;12.33;;;11.23;;
9328;SDS011;4703;48.748;19.142;2022-08-04T07:23:11;11.93;;;11.03;;
9328;SDS011;4703;48.748;19.142;2022-08-04T07:25:43;12.40;;;11.23;;
9328;SDS011;4703;48.748;19.142;2022-08-04T07:28:36;12.50;;;11.37;;
9328;SDS011;4703;48.748;19.142;2022-08-04T07:31:08;12.30;;;11.23;;
9328;SDS011;4703;48.748;19.142;2022-08-04T07:34:00;10.97;;;10.17;;
9328;SDS011;4703;48.748;19.142;2022-08-04T07:36:48;10.97;;;10.07;;
9328;SDS011;4703;48.748;19.142;2022-08-04T07:39:23;11.07;;;10.17;;
9328;SDS011;4703;48.748;19.142;2022-08-04T07:41:56;9.83;;;9.03;;
9328;SDS011;4703;48.748;19.142;2022-08-04T07:44:27;8.83;;;8.03;;
9328;SDS011;4703;48.748;19.142;2022-08-04T07:46:59;14.33;;;13.13;;
9328;SDS011;4703;48.748;19.142;2022-08-04T07:49:28;45.17;;;40.57;;
9328;SDS011;4703;48.748;19.142;2022-08-04T07:52:15;77.83;;;64.93;;
9328;SDS011;4703;48.748;19.142;2022-08-04T07:54:43;28.40;;;25.33;;
9328;SDS011;4703;48.748;19.142;2022-08-04T07:57:10;10.23;;;9.23;;
9328;SDS011;4703;48.748;19.142;2022-08-04T07:59:57;8.20;;;7.60;;
9328;SDS011;4703;48.748;19.142;2022-08-04T08:02:24;7.00;;;6.50;;
9328;SDS011;4703;48.748;19.142;2022-08-04T08:04:52;8.00;;;7.40;;
9328;SDS011;4703;48.748;19.142;2022-08-04T08:07:19;7.40;;;6.80;;
9328;SDS011;4703;48.748;19.142;2022-08-04T08:09:47;8.30;;;7.70;;
9328;SDS011;4703;48.748;19.142;2022-08-04T08:12:14;8.03;;;7.43;;
9328;SDS011;4703;48.748;19.142;2022-08-04T08:15:01;8.73;;;8.03;;
9328;SDS011;4703;48.748;19.142;2022-08-04T08:17:32;8.50;;;7.80;;
9328;SDS011;4703;48.748;19.142;2022-08-04T08:20:19;8.23;;;7.50;;
9328;SDS011;4703;48.748;19.142;2022-08-04T08:22:55;8.27;;;7.67;;
9328;SDS011;4703;48.748;19.142;2022-08-04T08:25:23;8.77;;;8.07;;
9328;SDS011;4703;48.748;19.142;2022-08-04T08:27:50;7.70;;;7.10;;
9328;SDS011;4703;48.748;19.142;2022-08-04T08:30:22;19.00;;;17.40;;
9328;SDS011;4703;48.748;19.142;2022-08-04T08:32:57;38.00;;;33.90;;
9328;SDS011;4703;48.748;19.142;2022-08-04T08:35:27;13.87;;;12.57;;
9328;SDS011;4703;48.748;19.142;2022-08-04T08:38:12;9.23;;;8.50;;
9328;SDS011;4703;48.748;19.142;2022-08-04T08:47:16;8.40;;;7.80;;
9328;SDS011;4703;48.748;19.142;2022-08-04T08:50:01;7.80;;;7.17;;
9328;SDS011;4703;48.748;19.142;2022-08-04T08:56:09;7.17;;;6.67;;
9328;SDS011;4703;48.748;19.142;2022-08-04T08:59:15;6.00;;;5.50;;
9328;SDS011;4703;48.748;19.142;2022-08-04T09:11:13;5.77;;;5.47;;
9328;SDS011;4703;48.748;19.142;2022-08-04T09:13:47;6.63;;;5.70;;
9328;SDS011;4703;48.748;19.142;2022-08-04T09:17:19;6.33;;;5.80;;
9328;SDS011;4703;48.748;19.142;2022-08-04T09:19:35;5.97;;;5.47;;
9328;SDS011;4703;48.748;19.142;2022-08-04T09:22:24;5.87;;;5.40;;
9328;SDS011;4703;48.748;19.142;2022-08-04T09:25:10;5.90;;;5.50;;
9328;SDS011;4703;48.748;19.142;2022-08-04T09:30:10;5.73;;;5.33;;
9328;SDS011;4703;48.748;19.142;2022-08-04T09:32:44;5.70;;;5.33;;
9328;SDS011;4703;48.748;19.142;2022-08-04T09:35:32;6.03;;;5.53;;
9328;SDS011;4703;48.748;19.142;2022-08-04T09:38:26;6.00;;;5.40;;
9328;SDS011;4703;48.748;19.142;2022-08-04T09:46:59;6.20;;;5.60;;
9328;SDS011;4703;48.748;19.142;2022-08-04T09:49:40;6.63;;;6.00;;
9328;SDS011;4703;48.748;19.142;2022-08-04T09:52:43;5.47;;;5.03;;
9328;SDS011;4703;48.748;19.142;2022-08-04T09:57:57;6.33;;;5.93;;
9328;SDS011;4703;48.748;19.142;2022-08-04T10:01:03;5.03;;;4.73;;
9328;SDS011;4703;48.748;19.142;2022-08-04T10:03:37;5.70;;;5.30;;
9328;SDS011;4703;48.748;19.142;2022-08-04T10:06:13;6.27;;;5.77;;
9328;SDS011;4703;48.748;19.142;2022-08-04T10:09:21;6.43;;;6.03;;
9328;SDS011;4703;48.748;19.142;2022-08-04T10:19:01;6.40;;;5.80;;
9328;SDS011;4703;48.748;19.142;2022-08-04T10:25:00;6.10;;;5.70;;
9328;SDS011;4703;48.748;19.142;2022-08-04T10:28:02;5.47;;;4.97;;
9328;SDS011;4703;48.748;19.142;2022-08-04T10:30:38;5.70;;;5.30;;
9328;SDS011;4703;48.748;19.142;2022-08-04T10:33:23;6.43;;;5.83;;
9328;SDS011;4703;48.748;19.142;2022-08-04T10:36:00;5.70;;;5.30;;
9328;SDS011;4703;48.748;19.142;2022-08-04T10:38:55;5.57;;;5.17;;
9328;SDS011;4703;48.748;19.142;2022-08-04T10:44:21;5.90;;;5.50;;
9328;SDS011;4703;48.748;19.142;2022-08-04T10:47:15;6.53;;;6.07;;
9328;SDS011;4703;48.748;19.142;2022-08-04T10:49:45;6.07;;;5.67;;
9328;SDS011;4703;48.748;19.142;2022-08-04T10:52:25;5.60;;;5.30;;
9328;SDS011;4703;48.748;19.142;2022-08-04T10:58:19;6.30;;;5.90;;
9328;SDS011;4703;48.748;19.142;2022-08-04T11:01:14;5.40;;;5.10;;
9328;SDS011;4703;48.748;19.142;2022-08-04T11:07:05;6.03;;;5.57;;
9328;SDS011;4703;48.748;19.142;2022-08-04T11:09:34;5.80;;;5.33;;
9328;SDS011;4703;48.748;19.142;2022-08-04T11:12:06;5.70;;;5.40;;
9328;SDS011;4703;48.748;19.142;2022-08-04T11:15:13;5.80;;;5.40;;
9328;SDS011;4703;48.748;19.142;2022-08-04T11:17:39;6.27;;;5.87;;
9328;SDS011;4703;48.748;19.142;2022-08-04T11:20:26;5.90;;;5.40;;
9328;SDS011;4703;48.748;19.142;2022-08-04T11:23:22;5.87;;;5.57;;
9328;SDS011;4703;48.748;19.142;2022-08-04T11:26:07;6.20;;;5.80;;
9328;SDS011;4703;48.748;19.142;2022-08-04T11:28:48;5.73;;;5.33;;
9328;SDS011;4703;48.748;19.142;2022-08-04T11:31:30;6.00;;;5.60;;
9328;SDS011;4703;48.748;19.142;2022-08-04T11:39:51;5.60;;;5.30;;
9328;SDS011;4703;48.748;19.142;2022-08-04T11:42:25;5.27;;;4.97;;
9328;SDS011;4703;48.748;19.142;2022-08-04T11:45:10;4.97;;;4.67;;
9328;SDS011;4703;48.748;19.142;2022-08-04T11:48:15;5.03;;;4.73;;
9328;SDS011;4703;48.748;19.142;2022-08-04T11:50:51;4.93;;;4.63;;
9328;SDS011;4703;48.748;19.142;2022-08-04T11:53:21;4.90;;;4.60;;
9328;SDS011;4703;48.748;19.142;2022-08-04T11:55:52;4.47;;;4.27;;
9328;SDS011;4703;48.748;19.142;2022-08-04T11:58:35;4.83;;;4.60;;
9328;SDS011;4703;48.748;19.142;2022-08-04T12:10:44;5.70;;;5.33;;
9328;SDS011;4703;48.748;19.142;2022-08-04T12:13:42;5.13;;;4.93;;
9328;SDS011;4703;48.748;19.142;2022-08-04T12:16:35;5.97;;;5.60;;
9328;SDS011;4703;48.748;19.142;2022-08-04T12:22:31;10.77;;;9.90;;
9328;SDS011;4703;48.748;19.142;2022-08-04T12:25:10;8.07;;;7.47;;
9328;SDS011;4703;48.748;19.142;2022-08-04T12:27:53;6.10;;;5.80;;
9328;SDS011;4703;48.748;19.142;2022-08-04T12:31:26;6.20;;;5.83;;
9328;SDS011;4703;48.748;19.142;2022-08-04T12:34:26;5.70;;;5.40;;
9328;SDS011;4703;48.748;19.142;2022-08-04T12:40:10;5.80;;;5.40;;
9328;SDS011;4703;48.748;19.142;2022-08-04T12:42:59;5.33;;;5.03;;
9328;SDS011;4703;48.748;19.142;2022-08-04T12:45:40;5.17;;;4.77;;
9328;SDS011;4703;48.748;19.142;2022-08-04T12:48:29;5.20;;;4.90;;
9328;SDS011;4703;48.748;19.142;2022-08-04T12:51:00;5.50;;;5.20;;
9328;SDS011;4703;48.748;19.142;2022-08-04T12:53:29;5.43;;;5.03;;
9328;SDS011;4703;48.748;19.142;2022-08-04T12:56:21;5.13;;;4.83;;
9328;SDS011;4703;48.748;19.142;2022-08-04T12:58:52;5.43;;;5.10;;
9328;SDS011;4703;48.748;19.142;2022-08-04T13:01:27;5.83;;;5.43;;
9328;SDS011;4703;48.748;19.142;2022-08-04T13:04:18;5.70;;;5.40;;
9328;SDS011;4703;48.748;19.142;2022-08-04T13:07:05;5.13;;;4.83;;
9328;SDS011;4703;48.748;19.142;2022-08-04T13:09:37;5.57;;;5.27;;
9328;SDS011;4703;48.748;19.142;2022-08-04T13:12:05;5.77;;;5.47;;
9328;SDS011;4703;48.748;19.142;2022-08-04T13:14:41;5.13;;;4.80;;
9328;SDS011;4703;48.748;19.142;2022-08-04T13:17:13;6.00;;;5.60;;
9328;SDS011;4703;48.748;19.142;2022-08-04T13:19:47;5.43;;;5.03;;
9328;SDS011;4703;48.748;19.142;2022-08-04T13:22:27;5.37;;;5.07;;
9328;SDS011;4703;48.748;19.142;2022-08-04T13:24:56;9.90;;;5.83;;
9328;SDS011;4703;48.748;19.142;2022-08-04T13:27:44;5.10;;;4.80;;
9328;SDS011;4703;48.748;19.142;2022-08-04T13:30:20;5.87;;;5.47;;
9328;SDS011;4703;48.748;19.142;2022-08-04T13:32:59;5.73;;;5.43;;
9328;SDS011;4703;48.748;19.142;2022-08-04T13:35:31;5.90;;;5.50;;
9328;SDS011;4703;48.748;19.142;2022-08-04T13:38:20;6.20;;;5.80;;
9328;SDS011;4703;48.748;19.142;2022-08-04T13:40:51;5.53;;;5.17;;
9328;SDS011;4703;48.748;19.142;2022-08-04T13:43:22;5.40;;;5.00;;
9328;SDS011;4703;48.748;19.142;2022-08-04T13:46:16;6.03;;;5.73;;
9328;SDS011;4703;48.748;19.142;2022-08-04T13:48:54;4.90;;;4.63;;
9328;SDS011;4703;48.748;19.142;2022-08-04T13:54:25;5.47;;;5.17;;
9328;SDS011;4703;48.748;19.142;2022-08-04T13:57:11;6.20;;;5.80;;
9328;SDS011;4703;48.748;19.142;2022-08-04T13:59:54;5.07;;;4.73;;
9328;SDS011;4703;48.748;19.142;2022-08-04T14:02:32;5.27;;;4.87;;
9328;SDS011;4703;48.748;19.142;2022-08-04T14:05:08;5.10;;;4.80;;
9328;SDS011;4703;48.748;19.142;2022-08-04T14:08:06;6.20;;;5.80;;
9328;SDS011;4703;48.748;19.142;2022-08-04T14:10:39;5.67;;;5.37;;
9328;SDS011;4703;48.748;19.142;2022-08-04T14:13:06;5.67;;;5.37;;
9328;SDS011;4703;48.748;19.142;2022-08-04T14:15:40;5.80;;;5.43;;
9328;SDS011;4703;48.748;19.142;2022-08-04T14:18:30;6.13;;;5.83;;
9328;SDS011;4703;48.748;19.142;2022-08-04T14:23:46;5.83;;;5.43;;
9328;SDS011;4703;48.748;19.142;2022-08-04T14:26:27;5.90;;;5.50;;
9328;SDS011;4703;48.748;19.142;2022-08-04T14:29:09;5.33;;;5.03;;
9328;SDS011;4703;48.748;19.142;2022-08-04T14:32:00;5.80;;;5.40;;
9328;SDS011;4703;48.748;19.142;2022-08-04T14:34:37;5.60;;;5.20;;
9328;SDS011;4703;48.748;19.142;2022-08-04T14:37:11;5.80;;;5.50;;
9328;SDS011;4703;48.748;19.142;2022-08-04T14:39:51;5.70;;;5.40;;
9328;SDS011;4703;48.748;19.142;2022-08-04T14:42:40;5.27;;;4.90;;
9328;SDS011;4703;48.748;19.142;2022-08-04T14:48:05;5.77;;;5.47;;
9328;SDS011;4703;48.748;19.142;2022-08-04T14:50:41;5.10;;;4.90;;
9328;SDS011;4703;48.748;19.142;2022-08-04T14:53:18;5.43;;;5.00;;
9328;SDS011;4703;48.748;19.142;2022-08-04T14:55:48;5.30;;;5.00;;
9328;SDS011;4703;48.748;19.142;2022-08-04T14:58:23;6.00;;;5.60;;
9328;SDS011;4703;48.748;19.142;2022-08-04T15:01:04;5.40;;;5.10;;
9328;SDS011;4703;48.748;19.142;2022-08-04T15:03:43;6.17;;;5.77;;
9328;SDS011;4703;48.748;19.142;2022-08-04T15:06:17;5.40;;;5.00;;
9328;SDS011;4703;48.748;19.142;2022-08-04T15:08:54;5.63;;;5.33;;
9328;SDS011;4703;48.748;19.142;2022-08-04T15:11:24;6.13;;;5.80;;
9328;SDS011;4703;48.748;19.142;2022-08-04T15:13:54;5.70;;;5.40;;
9328;SDS011;4703;48.748;19.142;2022-08-04T15:16:22;5.30;;;4.90;;
9328;SDS011;4703;48.748;19.142;2022-08-04T15:18:53;5.20;;;4.90;;
9328;SDS011;4703;48.748;19.142;2022-08-04T15:21:26;5.83;;;5.53;;
9328;SDS011;4703;48.748;19.142;2022-08-04T15:23:56;5.77;;;5.47;;
9328;SDS011;4703;48.748;19.142;2022-08-04T15:28:54;5.40;;;5.10;;
9328;SDS011;4703;48.748;19.142;2022-08-04T15:31:27;5.50;;;5.17;;
9328;SDS011;4703;48.748;19.142;2022-08-04T15:34:20;5.40;;;5.10;;
9328;SDS011;4703;48.748;19.142;2022-08-04T15:42:31;5.40;;;5.00;;
9328;SDS011;4703;48.748;19.142;2022-08-04T15:50:58;9.63;;;8.73;;
9328;SDS011;4703;48.748;19.142;2022-08-04T15:58:55;5.77;;;5.37;;
9328;SDS011;4703;48.748;19.142;2022-08-04T16:01:23;6.80;;;6.30;;
9328;SDS011;4703;48.748;19.142;2022-08-04T16:03:53;5.50;;;5.20;;
9328;SDS011;4703;48.748;19.142;2022-08-04T16:09:02;5.60;;;5.30;;
9328;SDS011;4703;48.748;19.142;2022-08-04T16:19:33;5.03;;;4.73;;
9328;SDS011;4703;48.748;19.142;2022-08-04T16:22:31;5.97;;;5.67;;
9328;SDS011;4703;48.748;19.142;2022-08-04T16:25:03;5.60;;;5.20;;
9328;SDS011;4703;48.748;19.142;2022-08-04T16:27:36;5.30;;;5.00;;
9328;SDS011;4703;48.748;19.142;2022-08-04T16:30:07;5.10;;;4.80;;
9328;SDS011;4703;48.748;19.142;2022-08-04T16:32:41;5.60;;;5.30;;
9328;SDS011;4703;48.748;19.142;2022-08-04T16:35:21;4.83;;;4.63;;
9328;SDS011;4703;48.748;19.142;2022-08-04T16:37:56;5.83;;;5.53;;
9328;SDS011;4703;48.748;19.142;2022-08-04T16:40:39;5.13;;;4.73;;
9328;SDS011;4703;48.748;19.142;2022-08-04T16:43:11;5.10;;;4.70;;
9328;SDS011;4703;48.748;19.142;2022-08-04T16:45:49;5.00;;;4.73;;
9328;SDS011;4703;48.748;19.142;2022-08-04T16:48:34;5.30;;;5.00;;
9328;SDS011;4703;48.748;19.142;2022-08-04T16:51:03;5.57;;;5.27;;
9328;SDS011;4703;48.748;19.142;2022-08-04T16:53:36;5.40;;;5.10;;
9328;SDS011;4703;48.748;19.142;2022-08-04T16:56:30;5.83;;;5.47;;
9328;SDS011;4703;48.748;19.142;2022-08-04T16:59:04;9.00;;;8.20;;
9328;SDS011;4703;48.748;19.142;2022-08-04T17:01:37;8.40;;;7.80;;
9328;SDS011;4703;48.748;19.142;2022-08-04T17:04:13;10.10;;;9.30;;
9328;SDS011;4703;48.748;19.142;2022-08-04T17:06:41;6.43;;;5.90;;
9328;SDS011;4703;48.748;19.142;2022-08-04T17:09:15;5.80;;;5.50;;
9328;SDS011;4703;48.748;19.142;2022-08-04T17:11:44;5.40;;;5.07;;
9328;SDS011;4703;48.748;19.142;2022-08-04T17:14:14;5.97;;;5.57;;
9328;SDS011;4703;48.748;19.142;2022-08-04T17:16:52;5.70;;;5.30;;
9328;SDS011;4703;48.748;19.142;2022-08-04T17:19:23;5.67;;;5.17;;
9328;SDS011;4703;48.748;19.142;2022-08-04T17:21:53;5.73;;;5.27;;
9328;SDS011;4703;48.748;19.142;2022-08-04T17:24:31;6.10;;;5.60;;
9328;SDS011;4703;48.748;19.142;2022-08-04T17:27:00;5.70;;;5.33;;
9328;SDS011;4703;48.748;19.142;2022-08-04T17:29:48;6.20;;;5.80;;
9328;SDS011;4703;48.748;19.142;2022-08-04T17:32:15;6.17;;;5.77;;
9328;SDS011;4703;48.748;19.142;2022-08-04T17:34:48;6.00;;;5.70;;
9328;SDS011;4703;48.748;19.142;2022-08-04T17:37:17;6.53;;;6.13;;
9328;SDS011;4703;48.748;19.142;2022-08-04T17:40:08;6.07;;;5.67;;
9328;SDS011;4703;48.748;19.142;2022-08-04T17:42:39;6.63;;;6.13;;
9328;SDS011;4703;48.748;19.142;2022-08-04T17:45:08;6.07;;;5.67;;
9328;SDS011;4703;48.748;19.142;2022-08-04T17:48:05;5.77;;;5.47;;
9328;SDS011;4703;48.748;19.142;2022-08-04T17:50:34;6.10;;;5.70;;
9328;SDS011;4703;48.748;19.142;2022-08-04T17:53:09;6.70;;;6.23;;
9328;SDS011;4703;48.748;19.142;2022-08-04T17:55:39;7.30;;;6.30;;
9328;SDS011;4703;48.748;19.142;2022-08-04T17:58:19;6.40;;;5.90;;
9328;SDS011;4703;48.748;19.142;2022-08-04T18:01:01;6.50;;;6.00;;
9328;SDS011;4703;48.748;19.142;2022-08-04T18:03:49;5.90;;;5.40;;
9328;SDS011;4703;48.748;19.142;2022-08-04T18:06:19;6.63;;;6.10;;
9328;SDS011;4703;48.748;19.142;2022-08-04T18:08:54;7.37;;;6.20;;
9328;SDS011;4703;48.748;19.142;2022-08-04T18:11:50;6.57;;;5.93;;
9328;SDS011;4703;48.748;19.142;2022-08-04T18:14:23;8.90;;;7.03;;
9328;SDS011;4703;48.748;19.142;2022-08-04T18:16:54;7.90;;;7.30;;
9328;SDS011;4703;48.748;19.142;2022-08-04T18:19:21;7.00;;;6.40;;
9328;SDS011;4703;48.748;19.142;2022-08-04T18:21:49;8.17;;;7.37;;
9328;SDS011;4703;48.748;19.142;2022-08-04T18:24:26;7.70;;;7.00;;
9328;SDS011;4703;48.748;19.142;2022-08-04T18:27:16;7.50;;;6.80;;
9328;SDS011;4703;48.748;19.142;2022-08-04T18:29:49;7.90;;;7.10;;
9328;SDS011;4703;48.748;19.142;2022-08-04T18:32:37;7.57;;;6.97;;
9328;SDS011;4703;48.748;19.142;2022-08-04T18:35:25;6.60;;;6.20;;
9328;SDS011;4703;48.748;19.142;2022-08-04T18:38:13;6.77;;;6.30;;
9328;SDS011;4703;48.748;19.142;2022-08-04T18:40:48;6.60;;;6.10;;
9328;SDS011;4703;48.748;19.142;2022-08-04T18:43:36;7.50;;;6.80;;
9328;SDS011;4703;48.748;19.142;2022-08-04T18:46:06;20.97;;;6.77;;
9328;SDS011;4703;48.748;19.142;2022-08-04T18:48:40;7.13;;;6.53;;
9328;SDS011;4703;48.748;19.142;2022-08-04T18:51:10;7.40;;;6.80;;
9328;SDS011;4703;48.748;19.142;2022-08-04T18:53:50;8.93;;;7.47;;
9328;SDS011;4703;48.748;19.142;2022-08-04T18:56:38;7.77;;;7.17;;
9328;SDS011;4703;48.748;19.142;2022-08-04T18:59:25;8.03;;;7.37;;
9328;SDS011;4703;48.748;19.142;2022-08-04T19:01:52;6.60;;;6.20;;
9328;SDS011;4703;48.748;19.142;2022-08-04T19:04:39;7.70;;;7.00;;
9328;SDS011;4703;48.748;19.142;2022-08-04T19:07:19;8.07;;;6.63;;
9328;SDS011;4703;48.748;19.142;2022-08-04T19:09:55;7.10;;;6.60;;
9328;SDS011;4703;48.748;19.142;2022-08-04T19:12:25;7.10;;;6.60;;
9328;SDS011;4703;48.748;19.142;2022-08-04T19:14:54;7.00;;;6.50;;
9328;SDS011;4703;48.748;19.142;2022-08-04T19:17:34;7.17;;;6.53;;
9328;SDS011;4703;48.748;19.142;2022-08-04T19:20:21;7.67;;;7.07;;
9328;SDS011;4703;48.748;19.142;2022-08-04T19:22:50;7.63;;;7.13;;
9328;SDS011;4703;48.748;19.142;2022-08-04T19:25:38;7.63;;;7.10;;
9328;SDS011;4703;48.748;19.142;2022-08-04T19:28:26;8.20;;;7.50;;
9328;SDS011;4703;48.748;19.142;2022-08-04T19:31:05;9.00;;;8.17;;
9328;SDS011;4703;48.748;19.142;2022-08-04T19:33:34;8.07;;;7.40;;
9328;SDS011;4703;48.748;19.142;2022-08-04T19:36:23;8.70;;;8.00;;
9328;SDS011;4703;48.748;19.142;2022-08-04T19:38:56;8.57;;;7.97;;
9328;SDS011;4703;48.748;19.142;2022-08-04T19:41:26;7.70;;;7.20;;
9328;SDS011;4703;48.748;19.142;2022-08-04T19:43:56;7.77;;;7.17;;
9328;SDS011;4703;48.748;19.142;2022-08-04T19:46:23;11.10;;;6.93;;
9328;SDS011;4703;48.748;19.142;2022-08-04T19:48:53;8.90;;;8.30;;
9328;SDS011;4703;48.748;19.142;2022-08-04T19:51:25;8.20;;;7.40;;
9328;SDS011;4703;48.748;19.142;2022-08-04T19:53:57;7.90;;;7.10;;
9328;SDS011;4703;48.748;19.142;2022-08-04T19:56:33;8.33;;;7.53;;
9328;SDS011;4703;48.748;19.142;2022-08-04T19:59:07;8.53;;;7.93;;
9328;SDS011;4703;48.748;19.142;2022-08-04T20:01:35;8.30;;;7.70;;
9328;SDS011;4703;48.748;19.142;2022-08-04T20:04:10;8.63;;;7.93;;
9328;SDS011;4703;48.748;19.142;2022-08-04T20:06:39;9.77;;;7.70;;
9328;SDS011;4703;48.748;19.142;2022-08-04T20:09:07;8.00;;;7.50;;